sensor_id;sensor_type;location;lat;lon;timestamp;P1;durP1;ratioP1;P2;durP2;ratioP2
15482;SDS011;7843;50.330;7.312;2023-04-29T00:01:05;1.75;;;0.68;;
15482;SDS011;7843;50.330;7.312;2023-04-29T00:03:31;1.83;;;0.80;;
15482;SDS011;7843;50.330;7.312;2023-04-29T00:05:58;1.40;;;0.88;;
15482;SDS011;7843;50.330;7.312;2023-04-29T00:08:26;0.85;;;0.80;;
15482;SDS011;7843;50.330;7.312;2023-04-29T00:10:52;1.90;;;0.70;;
15482;SDS011;7843;50.330;7.312;2023-04-29T00:13:19;1.90;;;0.88;;
15482;SDS011;7843;50.330;7.312;2023-04-29T00:15:46;1.05;;;0.77;;
15482;SDS011;7843;50.330;7.312;2023-04-29T00:18:13;1.10;;;0.90;;
15482;SDS011;7843;50.330;7.312;2023-04-29T00:20:39;0.93;;;0.77;;
15482;SDS011;7843;50.330;7.312;2023-04-29T00:23:07;1.35;;;0.70;;
15482;SDS011;7843;50.330;7.312;2023-04-29T00:25:34;0.70;;;0.60;;
15482;SDS011;7843;50.330;7.312;2023-04-29T00:28:01;0.82;;;0.77;;
15482;SDS011;7843;50.330;7.312;2023-04-29T00:30:28;0.77;;;0.70;;
15482;SDS011;7843;50.330;7.312;2023-04-29T00:32:56;1.90;;;0.70;;
15482;SDS011;7843;50.330;7.312;2023-04-29T00:35:22;2.30;;;0.63;;
15482;SDS011;7843;50.330;7.312;2023-04-29T00:37:49;0.67;;;0.60;;
15482;SDS011;7843;50.330;7.312;2023-04-29T00:40:15;1.20;;;0.80;;
15482;SDS011;7843;50.330;7.312;2023-04-29T00:42:42;2.28;;;0.70;;
15482;SDS011;7843;50.330;7.312;2023-04-29T00:45:09;0.60;;;0.50;;
15482;SDS011;7843;50.330;7.312;2023-04-29T00:47:37;3.10;;;0.60;;
15482;SDS011;7843;50.330;7.312;2023-04-29T00:50:04;0.85;;;0.63;;
15482;SDS011;7843;50.330;7.312;2023-04-29T00:52:32;0.50;;;0.50;;
15482;SDS011;7843;50.330;7.312;2023-04-29T00:55:00;1.10;;;0.80;;
15482;SDS011;7843;50.330;7.312;2023-04-29T00:57:27;0.70;;;0.60;;
15482;SDS011;7843;50.330;7.312;2023-04-29T00:59:56;1.45;;;1.00;;
15482;SDS011;7843;50.330;7.312;2023-04-29T01:02:24;2.70;;;0.98;;
15482;SDS011;7843;50.330;7.312;2023-04-29T01:04:51;0.77;;;0.68;;
15482;SDS011;7843;50.330;7.312;2023-04-29T01:10:14;1.30;;;0.80;;
15482;SDS011;7843;50.330;7.312;2023-04-29T01:13:05;2.45;;;1.40;;
15482;SDS011;7843;50.330;7.312;2023-04-29T01:16:02;1.38;;;1.20;;
15482;SDS011;7843;50.330;7.312;2023-04-29T01:18:35;3.75;;;2.22;;
15482;SDS011;7843;50.330;7.312;2023-04-29T01:21:06;3.97;;;2.83;;
15482;SDS011;7843;50.330;7.312;2023-04-29T01:23:33;3.15;;;2.53;;
15482;SDS011;7843;50.330;7.312;2023-04-29T01:25:59;5.00;;;3.40;;
15482;SDS011;7843;50.330;7.312;2023-04-29T01:28:39;7.38;;;3.20;;
15482;SDS011;7843;50.330;7.312;2023-04-29T01:39:06;6.50;;;3.00;;
15482;SDS011;7843;50.330;7.312;2023-04-29T01:41:43;4.70;;;3.42;;
15482;SDS011;7843;50.330;7.312;2023-04-29T01:44:14;5.43;;;3.50;;
15482;SDS011;7843;50.330;7.312;2023-04-29T01:46:53;5.43;;;3.58;;
15482;SDS011;7843;50.330;7.312;2023-04-29T01:49:20;7.47;;;4.75;;
15482;SDS011;7843;50.330;7.312;2023-04-29T01:51:49;6.38;;;3.90;;
15482;SDS011;7843;50.330;7.312;2023-04-29T01:54:16;5.33;;;3.70;;
15482;SDS011;7843;50.330;7.312;2023-04-29T01:56:43;5.53;;;3.50;;
15482;SDS011;7843;50.330;7.312;2023-04-29T01:59:10;6.38;;;3.92;;
15482;SDS011;7843;50.330;7.312;2023-04-29T02:01:37;7.80;;;4.43;;
15482;SDS011;7843;50.330;7.312;2023-04-29T02:04:03;8.10;;;4.60;;
15482;SDS011;7843;50.330;7.312;2023-04-29T02:06:30;6.78;;;4.18;;
15482;SDS011;7843;50.330;7.312;2023-04-29T02:08:59;8.68;;;5.35;;
15482;SDS011;7843;50.330;7.312;2023-04-29T02:11:26;8.25;;;5.10;;
15482;SDS011;7843;50.330;7.312;2023-04-29T02:13:53;6.38;;;3.95;;
15482;SDS011;7843;50.330;7.312;2023-04-29T02:16:19;7.65;;;4.68;;
15482;SDS011;7843;50.330;7.312;2023-04-29T02:18:46;6.50;;;4.55;;
15482;SDS011;7843;50.330;7.312;2023-04-29T02:21:13;8.55;;;5.13;;
15482;SDS011;7843;50.330;7.312;2023-04-29T02:23:39;6.85;;;4.22;;
15482;SDS011;7843;50.330;7.312;2023-04-29T02:26:06;9.40;;;5.00;;
15482;SDS011;7843;50.330;7.312;2023-04-29T02:28:34;12.25;;;5.43;;
15482;SDS011;7843;50.330;7.312;2023-04-29T02:31:01;8.53;;;5.00;;
15482;SDS011;7843;50.330;7.312;2023-04-29T02:33:28;7.88;;;4.80;;
15482;SDS011;7843;50.330;7.312;2023-04-29T02:35:55;7.65;;;5.35;;
15482;SDS011;7843;50.330;7.312;2023-04-29T02:38:21;11.55;;;6.25;;
15482;SDS011;7843;50.330;7.312;2023-04-29T02:40:48;8.87;;;5.67;;
15482;SDS011;7843;50.330;7.312;2023-04-29T02:43:15;10.32;;;5.55;;
15482;SDS011;7843;50.330;7.312;2023-04-29T02:45:42;10.07;;;5.63;;
15482;SDS011;7843;50.330;7.312;2023-04-29T02:48:09;10.57;;;6.18;;
15482;SDS011;7843;50.330;7.312;2023-04-29T02:50:36;13.02;;;6.70;;
15482;SDS011;7843;50.330;7.312;2023-04-29T02:53:02;11.88;;;6.60;;
15482;SDS011;7843;50.330;7.312;2023-04-29T02:55:29;10.98;;;6.28;;
15482;SDS011;7843;50.330;7.312;2023-04-29T02:57:56;8.98;;;5.45;;
15482;SDS011;7843;50.330;7.312;2023-04-29T03:00:22;13.10;;;6.53;;
15482;SDS011;7843;50.330;7.312;2023-04-29T03:02:49;9.75;;;5.25;;
15482;SDS011;7843;50.330;7.312;2023-04-29T03:05:16;8.00;;;4.53;;
15482;SDS011;7843;50.330;7.312;2023-04-29T03:07:42;10.45;;;5.30;;
15482;SDS011;7843;50.330;7.312;2023-04-29T03:10:09;8.27;;;4.70;;
15482;SDS011;7843;50.330;7.312;2023-04-29T03:12:37;7.70;;;4.82;;
15482;SDS011;7843;50.330;7.312;2023-04-29T03:15:07;9.97;;;4.93;;
15482;SDS011;7843;50.330;7.312;2023-04-29T03:17:35;8.05;;;4.53;;
15482;SDS011;7843;50.330;7.312;2023-04-29T03:20:03;9.73;;;4.43;;
15482;SDS011;7843;50.330;7.312;2023-04-29T03:22:30;8.25;;;4.47;;
15482;SDS011;7843;50.330;7.312;2023-04-29T03:24:56;10.02;;;4.72;;
15482;SDS011;7843;50.330;7.312;2023-04-29T03:27:23;7.32;;;3.95;;
15482;SDS011;7843;50.330;7.312;2023-04-29T03:29:50;6.70;;;4.25;;
15482;SDS011;7843;50.330;7.312;2023-04-29T03:32:17;8.98;;;3.72;;
15482;SDS011;7843;50.330;7.312;2023-04-29T03:34:43;8.37;;;4.30;;
15482;SDS011;7843;50.330;7.312;2023-04-29T03:37:10;7.93;;;4.40;;
15482;SDS011;7843;50.330;7.312;2023-04-29T03:39:37;7.65;;;4.28;;
15482;SDS011;7843;50.330;7.312;2023-04-29T03:42:03;5.28;;;3.35;;
15482;SDS011;7843;50.330;7.312;2023-04-29T03:44:30;7.10;;;3.55;;
15482;SDS011;7843;50.330;7.312;2023-04-29T03:46:57;5.15;;;3.20;;
15482;SDS011;7843;50.330;7.312;2023-04-29T03:49:23;5.70;;;2.95;;
15482;SDS011;7843;50.330;7.312;2023-04-29T03:51:50;4.90;;;3.23;;
15482;SDS011;7843;50.330;7.312;2023-04-29T03:54:17;4.53;;;2.80;;
15482;SDS011;7843;50.330;7.312;2023-04-29T03:56:44;9.02;;;3.10;;
15482;SDS011;7843;50.330;7.312;2023-04-29T03:59:11;4.13;;;2.92;;
15482;SDS011;7843;50.330;7.312;2023-04-29T04:01:37;5.22;;;3.13;;
15482;SDS011;7843;50.330;7.312;2023-04-29T04:04:04;4.97;;;3.03;;
15482;SDS011;7843;50.330;7.312;2023-04-29T04:06:31;5.65;;;3.10;;
15482;SDS011;7843;50.330;7.312;2023-04-29T04:08:57;5.60;;;3.03;;
15482;SDS011;7843;50.330;7.312;2023-04-29T04:11:24;6.68;;;3.60;;
15482;SDS011;7843;50.330;7.312;2023-04-29T04:13:50;4.85;;;2.70;;
15482;SDS011;7843;50.330;7.312;2023-04-29T04:16:17;4.13;;;2.63;;
15482;SDS011;7843;50.330;7.312;2023-04-29T04:18:44;5.60;;;3.20;;
15482;SDS011;7843;50.330;7.312;2023-04-29T04:21:11;5.70;;;3.22;;
15482;SDS011;7843;50.330;7.312;2023-04-29T04:23:38;4.32;;;2.75;;
15482;SDS011;7843;50.330;7.312;2023-04-29T04:26:09;5.50;;;3.00;;
15482;SDS011;7843;50.330;7.312;2023-04-29T04:28:35;4.70;;;3.10;;
15482;SDS011;7843;50.330;7.312;2023-04-29T04:31:02;5.07;;;3.10;;
15482;SDS011;7843;50.330;7.312;2023-04-29T04:33:30;5.68;;;3.42;;
15482;SDS011;7843;50.330;7.312;2023-04-29T04:35:57;8.02;;;3.78;;
15482;SDS011;7843;50.330;7.312;2023-04-29T04:38:23;6.53;;;3.90;;
15482;SDS011;7843;50.330;7.312;2023-04-29T04:40:51;6.10;;;3.58;;
15482;SDS011;7843;50.330;7.312;2023-04-29T04:43:18;4.80;;;2.80;;
15482;SDS011;7843;50.330;7.312;2023-04-29T04:45:44;6.85;;;3.00;;
15482;SDS011;7843;50.330;7.312;2023-04-29T04:48:11;4.47;;;2.93;;
15482;SDS011;7843;50.330;7.312;2023-04-29T04:50:38;5.43;;;2.88;;
15482;SDS011;7843;50.330;7.312;2023-04-29T04:53:05;5.68;;;2.97;;
15482;SDS011;7843;50.330;7.312;2023-04-29T04:55:31;4.55;;;3.03;;
15482;SDS011;7843;50.330;7.312;2023-04-29T04:57:58;5.55;;;3.42;;
15482;SDS011;7843;50.330;7.312;2023-04-29T05:00:25;6.18;;;3.33;;
15482;SDS011;7843;50.330;7.312;2023-04-29T05:02:52;5.82;;;3.30;;
15482;SDS011;7843;50.330;7.312;2023-04-29T05:05:18;4.55;;;2.92;;
15482;SDS011;7843;50.330;7.312;2023-04-29T05:07:45;5.70;;;3.30;;
15482;SDS011;7843;50.330;7.312;2023-04-29T05:10:12;6.10;;;3.10;;
15482;SDS011;7843;50.330;7.312;2023-04-29T05:12:39;4.97;;;3.38;;
15482;SDS011;7843;50.330;7.312;2023-04-29T05:15:05;5.28;;;3.42;;
15482;SDS011;7843;50.330;7.312;2023-04-29T05:17:33;6.17;;;3.70;;
15482;SDS011;7843;50.330;7.312;2023-04-29T05:20:01;6.78;;;3.28;;
15482;SDS011;7843;50.330;7.312;2023-04-29T05:22:28;6.63;;;3.80;;
15482;SDS011;7843;50.330;7.312;2023-04-29T05:24:55;5.50;;;3.00;;
15482;SDS011;7843;50.330;7.312;2023-04-29T05:27:27;6.00;;;3.28;;
15482;SDS011;7843;50.330;7.312;2023-04-29T05:29:54;5.63;;;2.95;;
15482;SDS011;7843;50.330;7.312;2023-04-29T05:32:21;5.07;;;3.20;;
15482;SDS011;7843;50.330;7.312;2023-04-29T05:34:48;4.80;;;3.05;;
15482;SDS011;7843;50.330;7.312;2023-04-29T05:37:14;6.38;;;3.42;;
15482;SDS011;7843;50.330;7.312;2023-04-29T05:39:41;10.43;;;3.72;;
15482;SDS011;7843;50.330;7.312;2023-04-29T05:42:08;7.38;;;3.75;;
15482;SDS011;7843;50.330;7.312;2023-04-29T05:44:34;6.57;;;4.22;;
15482;SDS011;7843;50.330;7.312;2023-04-29T05:47:01;6.18;;;3.75;;
15482;SDS011;7843;50.330;7.312;2023-04-29T05:49:28;8.10;;;3.95;;
15482;SDS011;7843;50.330;7.312;2023-04-29T05:51:54;5.50;;;3.50;;
15482;SDS011;7843;50.330;7.312;2023-04-29T05:54:21;8.07;;;3.97;;
15482;SDS011;7843;50.330;7.312;2023-04-29T05:56:48;6.07;;;4.00;;
15482;SDS011;7843;50.330;7.312;2023-04-29T05:59:14;6.97;;;4.50;;
15482;SDS011;7843;50.330;7.312;2023-04-29T06:01:41;7.65;;;4.18;;
15482;SDS011;7843;50.330;7.312;2023-04-29T06:04:07;8.40;;;4.50;;
15482;SDS011;7843;50.330;7.312;2023-04-29T06:06:34;7.05;;;4.10;;
15482;SDS011;7843;50.330;7.312;2023-04-29T06:09:01;8.55;;;3.78;;
15482;SDS011;7843;50.330;7.312;2023-04-29T06:11:28;9.38;;;5.05;;
15482;SDS011;7843;50.330;7.312;2023-04-29T06:13:54;8.88;;;5.35;;
15482;SDS011;7843;50.330;7.312;2023-04-29T06:16:22;8.73;;;5.15;;
15482;SDS011;7843;50.330;7.312;2023-04-29T06:18:49;10.85;;;5.85;;
15482;SDS011;7843;50.330;7.312;2023-04-29T06:21:16;15.45;;;6.75;;
15482;SDS011;7843;50.330;7.312;2023-04-29T06:23:42;15.38;;;7.05;;
15482;SDS011;7843;50.330;7.312;2023-04-29T06:26:09;16.02;;;7.57;;
15482;SDS011;7843;50.330;7.312;2023-04-29T06:28:35;13.88;;;7.18;;
15482;SDS011;7843;50.330;7.312;2023-04-29T06:31:02;11.77;;;6.35;;
15482;SDS011;7843;50.330;7.312;2023-04-29T06:33:29;11.35;;;5.95;;
15482;SDS011;7843;50.330;7.312;2023-04-29T06:35:56;12.00;;;6.72;;
15482;SDS011;7843;50.330;7.312;2023-04-29T06:38:22;15.93;;;8.45;;
15482;SDS011;7843;50.330;7.312;2023-04-29T06:40:49;16.08;;;8.45;;
15482;SDS011;7843;50.330;7.312;2023-04-29T06:43:16;18.88;;;8.75;;
15482;SDS011;7843;50.330;7.312;2023-04-29T06:45:44;16.92;;;9.27;;
15482;SDS011;7843;50.330;7.312;2023-04-29T06:48:12;17.48;;;8.45;;
15482;SDS011;7843;50.330;7.312;2023-04-29T06:50:45;18.30;;;9.45;;
15482;SDS011;7843;50.330;7.312;2023-04-29T06:53:23;21.33;;;9.65;;
15482;SDS011;7843;50.330;7.312;2023-04-29T06:55:50;17.88;;;8.65;;
15482;SDS011;7843;50.330;7.312;2023-04-29T06:58:17;20.05;;;9.38;;
15482;SDS011;7843;50.330;7.312;2023-04-29T07:00:45;17.70;;;8.43;;
15482;SDS011;7843;50.330;7.312;2023-04-29T07:03:13;18.25;;;8.88;;
15482;SDS011;7843;50.330;7.312;2023-04-29T07:05:40;20.45;;;8.32;;
15482;SDS011;7843;50.330;7.312;2023-04-29T07:08:11;16.13;;;8.23;;
15482;SDS011;7843;50.330;7.312;2023-04-29T07:10:38;14.07;;;7.65;;
15482;SDS011;7843;50.330;7.312;2023-04-29T07:13:06;14.23;;;6.60;;
15482;SDS011;7843;50.330;7.312;2023-04-29T07:15:33;9.52;;;5.25;;
15482;SDS011;7843;50.330;7.312;2023-04-29T07:18:04;8.02;;;3.40;;
15482;SDS011;7843;50.330;7.312;2023-04-29T07:20:31;9.85;;;4.40;;
15482;SDS011;7843;50.330;7.312;2023-04-29T07:23:01;8.93;;;4.17;;
15482;SDS011;7843;50.330;7.312;2023-04-29T07:25:28;7.55;;;4.28;;
15482;SDS011;7843;50.330;7.312;2023-04-29T07:27:55;7.25;;;3.95;;
15482;SDS011;7843;50.330;7.312;2023-04-29T07:30:22;4.97;;;3.07;;
15482;SDS011;7843;50.330;7.312;2023-04-29T07:32:49;6.13;;;2.90;;
15482;SDS011;7843;50.330;7.312;2023-04-29T07:35:15;6.00;;;2.77;;
15482;SDS011;7843;50.330;7.312;2023-04-29T07:37:42;4.88;;;2.60;;
15482;SDS011;7843;50.330;7.312;2023-04-29T07:40:09;4.27;;;2.57;;
15482;SDS011;7843;50.330;7.312;2023-04-29T07:42:36;6.88;;;3.53;;
15482;SDS011;7843;50.330;7.312;2023-04-29T07:45:03;6.38;;;3.05;;
15482;SDS011;7843;50.330;7.312;2023-04-29T07:47:30;6.03;;;3.40;;
15482;SDS011;7843;50.330;7.312;2023-04-29T07:49:57;7.10;;;2.95;;
15482;SDS011;7843;50.330;7.312;2023-04-29T07:52:24;5.30;;;2.88;;
15482;SDS011;7843;50.330;7.312;2023-04-29T07:54:51;5.40;;;2.90;;
15482;SDS011;7843;50.330;7.312;2023-04-29T07:57:17;5.57;;;2.83;;
15482;SDS011;7843;50.330;7.312;2023-04-29T07:59:44;4.50;;;3.00;;
15482;SDS011;7843;50.330;7.312;2023-04-29T08:02:11;6.70;;;3.45;;
15482;SDS011;7843;50.330;7.312;2023-04-29T08:04:38;7.78;;;3.70;;
15482;SDS011;7843;50.330;7.312;2023-04-29T08:07:06;6.85;;;3.50;;
15482;SDS011;7843;50.330;7.312;2023-04-29T08:09:33;6.75;;;3.80;;
15482;SDS011;7843;50.330;7.312;2023-04-29T08:12:00;7.18;;;4.00;;
15482;SDS011;7843;50.330;7.312;2023-04-29T08:14:27;6.45;;;3.80;;
15482;SDS011;7843;50.330;7.312;2023-04-29T08:16:54;8.07;;;3.70;;
15482;SDS011;7843;50.330;7.312;2023-04-29T08:19:20;6.55;;;3.53;;
15482;SDS011;7843;50.330;7.312;2023-04-29T08:21:47;7.15;;;3.97;;
15482;SDS011;7843;50.330;7.312;2023-04-29T08:24:14;6.35;;;3.60;;
15482;SDS011;7843;50.330;7.312;2023-04-29T08:26:40;6.30;;;3.33;;
15482;SDS011;7843;50.330;7.312;2023-04-29T08:29:07;7.72;;;3.83;;
15482;SDS011;7843;50.330;7.312;2023-04-29T08:31:34;5.68;;;3.55;;
15482;SDS011;7843;50.330;7.312;2023-04-29T08:34:01;6.32;;;3.67;;
15482;SDS011;7843;50.330;7.312;2023-04-29T08:36:27;6.82;;;3.58;;
15482;SDS011;7843;50.330;7.312;2023-04-29T08:38:55;11.13;;;3.40;;
15482;SDS011;7843;50.330;7.312;2023-04-29T08:41:21;6.38;;;3.72;;
15482;SDS011;7843;50.330;7.312;2023-04-29T08:43:48;7.68;;;4.00;;
15482;SDS011;7843;50.330;7.312;2023-04-29T08:46:15;6.72;;;3.72;;
15482;SDS011;7843;50.330;7.312;2023-04-29T08:48:42;8.67;;;4.33;;
15482;SDS011;7843;50.330;7.312;2023-04-29T08:51:13;7.35;;;4.07;;
15482;SDS011;7843;50.330;7.312;2023-04-29T08:53:40;7.18;;;4.07;;
15482;SDS011;7843;50.330;7.312;2023-04-29T08:56:15;7.15;;;4.28;;
15482;SDS011;7843;50.330;7.312;2023-04-29T08:58:45;7.22;;;3.72;;
15482;SDS011;7843;50.330;7.312;2023-04-29T09:01:16;6.83;;;3.77;;
15482;SDS011;7843;50.330;7.312;2023-04-29T09:06:38;5.82;;;3.17;;
15482;SDS011;7843;50.330;7.312;2023-04-29T09:09:05;4.05;;;2.90;;
15482;SDS011;7843;50.330;7.312;2023-04-29T09:11:32;5.60;;;2.90;;
15482;SDS011;7843;50.330;7.312;2023-04-29T09:14:01;5.10;;;2.80;;
15482;SDS011;7843;50.330;7.312;2023-04-29T09:16:29;3.83;;;2.70;;
15482;SDS011;7843;50.330;7.312;2023-04-29T09:18:56;4.00;;;2.25;;
15482;SDS011;7843;50.330;7.312;2023-04-29T09:21:24;2.72;;;1.63;;
15482;SDS011;7843;50.330;7.312;2023-04-29T09:23:55;4.43;;;1.85;;
15482;SDS011;7843;50.330;7.312;2023-04-29T09:26:23;2.42;;;1.65;;
15482;SDS011;7843;50.330;7.312;2023-04-29T09:31:39;5.10;;;2.35;;
15482;SDS011;7843;50.330;7.312;2023-04-29T09:34:07;4.30;;;2.17;;
15482;SDS011;7843;50.330;7.312;2023-04-29T09:36:34;3.10;;;1.88;;
15482;SDS011;7843;50.330;7.312;2023-04-29T09:39:16;3.67;;;2.10;;
15482;SDS011;7843;50.330;7.312;2023-04-29T09:44:21;3.92;;;2.55;;
15482;SDS011;7843;50.330;7.312;2023-04-29T09:46:55;4.15;;;2.70;;
15482;SDS011;7843;50.330;7.312;2023-04-29T09:49:36;4.05;;;2.35;;
15482;SDS011;7843;50.330;7.312;2023-04-29T09:52:09;4.72;;;3.00;;
15482;SDS011;7843;50.330;7.312;2023-04-29T09:54:38;8.40;;;3.60;;
15482;SDS011;7843;50.330;7.312;2023-04-29T09:57:06;6.78;;;3.70;;
15482;SDS011;7843;50.330;7.312;2023-04-29T09:59:34;6.47;;;4.65;;
15482;SDS011;7843;50.330;7.312;2023-04-29T10:02:06;8.60;;;4.20;;
15482;SDS011;7843;50.330;7.312;2023-04-29T10:04:40;7.22;;;4.68;;
15482;SDS011;7843;50.330;7.312;2023-04-29T10:07:10;6.97;;;4.15;;
15482;SDS011;7843;50.330;7.312;2023-04-29T10:09:41;6.60;;;3.75;;
15482;SDS011;7843;50.330;7.312;2023-04-29T10:12:10;6.15;;;3.90;;
15482;SDS011;7843;50.330;7.312;2023-04-29T10:14:42;7.10;;;4.20;;
15482;SDS011;7843;50.330;7.312;2023-04-29T10:17:15;7.22;;;4.25;;
15482;SDS011;7843;50.330;7.312;2023-04-29T10:19:57;6.90;;;3.83;;
15482;SDS011;7843;50.330;7.312;2023-04-29T10:22:52;6.10;;;3.70;;
15482;SDS011;7843;50.330;7.312;2023-04-29T10:25:20;6.90;;;4.07;;
15482;SDS011;7843;50.330;7.312;2023-04-29T10:27:49;8.13;;;4.80;;
15482;SDS011;7843;50.330;7.312;2023-04-29T10:30:19;8.85;;;4.45;;
15482;SDS011;7843;50.330;7.312;2023-04-29T10:32:47;7.35;;;4.47;;
15482;SDS011;7843;50.330;7.312;2023-04-29T10:35:16;8.40;;;4.40;;
15482;SDS011;7843;50.330;7.312;2023-04-29T10:37:45;7.53;;;4.35;;
15482;SDS011;7843;50.330;7.312;2023-04-29T10:40:17;5.80;;;3.70;;
15482;SDS011;7843;50.330;7.312;2023-04-29T10:43:15;6.78;;;4.05;;
15482;SDS011;7843;50.330;7.312;2023-04-29T10:45:47;8.27;;;4.53;;
15482;SDS011;7843;50.330;7.312;2023-04-29T10:48:14;7.53;;;4.30;;
15482;SDS011;7843;50.330;7.312;2023-04-29T10:53:13;7.03;;;4.00;;
15482;SDS011;7843;50.330;7.312;2023-04-29T10:55:41;7.30;;;4.00;;
15482;SDS011;7843;50.330;7.312;2023-04-29T11:01:13;7.78;;;4.15;;
15482;SDS011;7843;50.330;7.312;2023-04-29T11:06:25;5.43;;;3.22;;
15482;SDS011;7843;50.330;7.312;2023-04-29T11:11:45;7.80;;;3.35;;
15482;SDS011;7843;50.330;7.312;2023-04-29T11:14:12;7.50;;;4.18;;
15482;SDS011;7843;50.330;7.312;2023-04-29T11:16:56;5.70;;;3.67;;
15482;SDS011;7843;50.330;7.312;2023-04-29T11:19:35;5.93;;;3.53;;
15482;SDS011;7843;50.330;7.312;2023-04-29T11:24:56;7.60;;;4.60;;
15482;SDS011;7843;50.330;7.312;2023-04-29T11:27:26;7.70;;;4.60;;
15482;SDS011;7843;50.330;7.312;2023-04-29T11:29:59;8.13;;;4.95;;
15482;SDS011;7843;50.330;7.312;2023-04-29T11:32:32;8.90;;;4.70;;
15482;SDS011;7843;50.330;7.312;2023-04-29T11:37:34;8.82;;;4.63;;
15482;SDS011;7843;50.330;7.312;2023-04-29T11:40:02;6.93;;;4.32;;
15482;SDS011;7843;50.330;7.312;2023-04-29T11:42:30;8.10;;;5.35;;
15482;SDS011;7843;50.330;7.312;2023-04-29T11:45:19;10.05;;;4.88;;
15482;SDS011;7843;50.330;7.312;2023-04-29T11:47:46;12.80;;;5.05;;
15482;SDS011;7843;50.330;7.312;2023-04-29T11:50:14;8.52;;;4.95;;
15482;SDS011;7843;50.330;7.312;2023-04-29T11:52:47;9.50;;;5.30;;
15482;SDS011;7843;50.330;7.312;2023-04-29T11:55:14;8.73;;;5.00;;
15482;SDS011;7843;50.330;7.312;2023-04-29T11:57:41;9.90;;;5.70;;
15482;SDS011;7843;50.330;7.312;2023-04-29T12:00:12;10.65;;;5.55;;
15482;SDS011;7843;50.330;7.312;2023-04-29T12:02:42;7.97;;;4.73;;
15482;SDS011;7843;50.330;7.312;2023-04-29T12:05:11;9.65;;;5.63;;
15482;SDS011;7843;50.330;7.312;2023-04-29T12:07:38;14.13;;;6.20;;
15482;SDS011;7843;50.330;7.312;2023-04-29T12:10:08;10.82;;;6.70;;
15482;SDS011;7843;50.330;7.312;2023-04-29T12:12:36;13.45;;;6.65;;
15482;SDS011;7843;50.330;7.312;2023-04-29T12:15:06;11.07;;;6.43;;
15482;SDS011;7843;50.330;7.312;2023-04-29T12:17:34;9.30;;;5.90;;
15482;SDS011;7843;50.330;7.312;2023-04-29T12:20:02;12.13;;;6.80;;
15482;SDS011;7843;50.330;7.312;2023-04-29T12:22:32;13.73;;;6.95;;
15482;SDS011;7843;50.330;7.312;2023-04-29T12:25:03;12.50;;;7.32;;
15482;SDS011;7843;50.330;7.312;2023-04-29T12:27:31;11.23;;;6.50;;
15482;SDS011;7843;50.330;7.312;2023-04-29T12:29:59;11.23;;;6.90;;
15482;SDS011;7843;50.330;7.312;2023-04-29T12:32:26;10.05;;;6.38;;
15482;SDS011;7843;50.330;7.312;2023-04-29T12:34:53;13.73;;;6.63;;
15482;SDS011;7843;50.330;7.312;2023-04-29T12:37:21;10.82;;;6.55;;
15482;SDS011;7843;50.330;7.312;2023-04-29T12:39:53;12.48;;;6.60;;
15482;SDS011;7843;50.330;7.312;2023-04-29T12:42:20;10.68;;;6.28;;
15482;SDS011;7843;50.330;7.312;2023-04-29T12:44:47;13.98;;;7.10;;
15482;SDS011;7843;50.330;7.312;2023-04-29T12:47:14;9.73;;;6.13;;
15482;SDS011;7843;50.330;7.312;2023-04-29T12:49:42;11.60;;;6.83;;
15482;SDS011;7843;50.330;7.312;2023-04-29T12:52:13;13.75;;;7.30;;
15482;SDS011;7843;50.330;7.312;2023-04-29T12:54:39;14.50;;;6.95;;
15482;SDS011;7843;50.330;7.312;2023-04-29T12:57:09;11.95;;;6.47;;
15482;SDS011;7843;50.330;7.312;2023-04-29T12:59:37;12.63;;;7.07;;
15482;SDS011;7843;50.330;7.312;2023-04-29T13:02:06;10.25;;;6.25;;
15482;SDS011;7843;50.330;7.312;2023-04-29T13:04:32;12.48;;;6.97;;
15482;SDS011;7843;50.330;7.312;2023-04-29T13:06:59;11.88;;;7.03;;
15482;SDS011;7843;50.330;7.312;2023-04-29T13:09:26;11.18;;;6.50;;
15482;SDS011;7843;50.330;7.312;2023-04-29T13:11:53;11.10;;;6.60;;
15482;SDS011;7843;50.330;7.312;2023-04-29T13:14:19;13.13;;;7.53;;
15482;SDS011;7843;50.330;7.312;2023-04-29T13:16:46;11.57;;;7.10;;
15482;SDS011;7843;50.330;7.312;2023-04-29T13:19:13;15.77;;;8.27;;
15482;SDS011;7843;50.330;7.312;2023-04-29T13:21:53;16.00;;;8.88;;
15482;SDS011;7843;50.330;7.312;2023-04-29T13:24:19;15.73;;;8.55;;
15482;SDS011;7843;50.330;7.312;2023-04-29T13:26:46;16.50;;;8.63;;
15482;SDS011;7843;50.330;7.312;2023-04-29T13:29:14;17.10;;;9.48;;
15482;SDS011;7843;50.330;7.312;2023-04-29T13:31:40;15.50;;;8.65;;
15482;SDS011;7843;50.330;7.312;2023-04-29T13:34:09;16.48;;;8.80;;
15482;SDS011;7843;50.330;7.312;2023-04-29T13:36:35;16.15;;;8.75;;
15482;SDS011;7843;50.330;7.312;2023-04-29T13:39:02;16.15;;;9.40;;
15482;SDS011;7843;50.330;7.312;2023-04-29T13:41:29;17.97;;;10.10;;
15482;SDS011;7843;50.330;7.312;2023-04-29T13:43:57;17.60;;;8.50;;
15482;SDS011;7843;50.330;7.312;2023-04-29T13:46:26;18.30;;;9.00;;
15482;SDS011;7843;50.330;7.312;2023-04-29T13:48:54;19.23;;;8.70;;
15482;SDS011;7843;50.330;7.312;2023-04-29T13:51:40;16.23;;;9.13;;
15482;SDS011;7843;50.330;7.312;2023-04-29T13:54:10;18.85;;;9.35;;
15482;SDS011;7843;50.330;7.312;2023-04-29T13:56:56;19.25;;;10.25;;
15482;SDS011;7843;50.330;7.312;2023-04-29T13:59:26;16.27;;;8.73;;
15482;SDS011;7843;50.330;7.312;2023-04-29T14:02:05;19.00;;;9.48;;
15482;SDS011;7843;50.330;7.312;2023-04-29T14:04:34;18.08;;;9.50;;
15482;SDS011;7843;50.330;7.312;2023-04-29T14:07:01;18.10;;;9.85;;
15482;SDS011;7843;50.330;7.312;2023-04-29T14:09:28;23.92;;;11.18;;
15482;SDS011;7843;50.330;7.312;2023-04-29T14:11:55;19.97;;;10.70;;
15482;SDS011;7843;50.330;7.312;2023-04-29T14:14:21;25.83;;;12.40;;
15482;SDS011;7843;50.330;7.312;2023-04-29T14:16:49;27.02;;;13.05;;
15482;SDS011;7843;50.330;7.312;2023-04-29T14:19:15;26.17;;;13.52;;
15482;SDS011;7843;50.330;7.312;2023-04-29T14:21:42;25.48;;;12.40;;
15482;SDS011;7843;50.330;7.312;2023-04-29T14:24:09;24.42;;;12.55;;
15482;SDS011;7843;50.330;7.312;2023-04-29T14:26:35;23.80;;;12.32;;
15482;SDS011;7843;50.330;7.312;2023-04-29T14:29:02;25.20;;;12.40;;
15482;SDS011;7843;50.330;7.312;2023-04-29T14:31:29;22.53;;;11.40;;
15482;SDS011;7843;50.330;7.312;2023-04-29T14:34:06;20.50;;;10.65;;
15482;SDS011;7843;50.330;7.312;2023-04-29T14:36:33;19.90;;;9.52;;
15482;SDS011;7843;50.330;7.312;2023-04-29T14:39:00;21.30;;;11.65;;
15482;SDS011;7843;50.330;7.312;2023-04-29T14:41:28;22.63;;;10.83;;
15482;SDS011;7843;50.330;7.312;2023-04-29T14:43:55;22.03;;;11.43;;
15482;SDS011;7843;50.330;7.312;2023-04-29T14:46:22;18.67;;;10.15;;
15482;SDS011;7843;50.330;7.312;2023-04-29T14:48:50;23.95;;;11.60;;
15482;SDS011;7843;50.330;7.312;2023-04-29T14:51:16;20.67;;;10.80;;
15482;SDS011;7843;50.330;7.312;2023-04-29T14:53:43;19.88;;;10.38;;
15482;SDS011;7843;50.330;7.312;2023-04-29T14:56:10;22.70;;;11.13;;
15482;SDS011;7843;50.330;7.312;2023-04-29T14:58:37;20.63;;;10.70;;
15482;SDS011;7843;50.330;7.312;2023-04-29T15:01:03;22.13;;;10.32;;
15482;SDS011;7843;50.330;7.312;2023-04-29T15:03:30;20.10;;;10.40;;
15482;SDS011;7843;50.330;7.312;2023-04-29T15:05:57;23.30;;;11.88;;
15482;SDS011;7843;50.330;7.312;2023-04-29T15:08:24;25.88;;;11.90;;
15482;SDS011;7843;50.330;7.312;2023-04-29T15:10:50;26.48;;;12.68;;
15482;SDS011;7843;50.330;7.312;2023-04-29T15:13:17;29.97;;;13.93;;
15482;SDS011;7843;50.330;7.312;2023-04-29T15:15:44;24.13;;;12.48;;
15482;SDS011;7843;50.330;7.312;2023-04-29T15:18:11;24.52;;;13.32;;
15482;SDS011;7843;50.330;7.312;2023-04-29T15:20:37;27.45;;;13.13;;
15482;SDS011;7843;50.330;7.312;2023-04-29T15:23:04;26.23;;;12.57;;
15482;SDS011;7843;50.330;7.312;2023-04-29T15:25:31;24.77;;;12.07;;
15482;SDS011;7843;50.330;7.312;2023-04-29T15:28:01;28.67;;;12.82;;
15482;SDS011;7843;50.330;7.312;2023-04-29T15:30:31;22.80;;;12.73;;
15482;SDS011;7843;50.330;7.312;2023-04-29T15:32:57;29.15;;;12.93;;
15482;SDS011;7843;50.330;7.312;2023-04-29T15:35:24;24.07;;;13.37;;
15482;SDS011;7843;50.330;7.312;2023-04-29T15:37:51;28.42;;;13.85;;